sensor_id;sensor_type;location;lat;lon;timestamp;P1;durP1;ratioP1;P2;durP2;ratioP2
81697;SDS011;71109;52.514;5.708;2023-08-31T00:00:31;5.47;;;2.30;;
81697;SDS011;71109;52.514;5.708;2023-08-31T00:02:57;5.63;;;3.28;;
81697;SDS011;71109;52.514;5.708;2023-08-31T00:05:23;11.27;;;3.80;;
81697;SDS011;71109;52.514;5.708;2023-08-31T00:07:52;9.35;;;3.38;;
81697;SDS011;71109;52.514;5.708;2023-08-31T00:10:17;14.33;;;3.47;;
81697;SDS011;71109;52.514;5.708;2023-08-31T00:12:43;8.70;;;3.50;;
81697;SDS011;71109;52.514;5.708;2023-08-31T00:15:09;5.13;;;3.10;;
81697;SDS011;71109;52.514;5.708;2023-08-31T00:17:34;8.18;;;3.65;;
81697;SDS011;71109;52.514;5.708;2023-08-31T00:20:00;18.35;;;5.00;;
81697;SDS011;71109;52.514;5.708;2023-08-31T00:22:25;15.88;;;4.85;;
81697;SDS011;71109;52.514;5.708;2023-08-31T00:24:51;9.45;;;2.85;;
81697;SDS011;71109;52.514;5.708;2023-08-31T00:27:17;5.82;;;1.83;;
81697;SDS011;71109;52.514;5.708;2023-08-31T00:29:43;4.57;;;1.83;;
81697;SDS011;71109;52.514;5.708;2023-08-31T00:32:14;7.38;;;2.28;;
81697;SDS011;71109;52.514;5.708;2023-08-31T00:34:40;5.88;;;1.90;;
81697;SDS011;71109;52.514;5.708;2023-08-31T00:37:05;4.10;;;1.67;;
81697;SDS011;71109;52.514;5.708;2023-08-31T00:39:31;6.53;;;1.52;;
81697;SDS011;71109;52.514;5.708;2023-08-31T00:41:58;3.55;;;1.83;;
81697;SDS011;71109;52.514;5.708;2023-08-31T00:44:24;4.70;;;1.30;;
81697;SDS011;71109;52.514;5.708;2023-08-31T00:46:49;7.55;;;1.85;;
81697;SDS011;71109;52.514;5.708;2023-08-31T00:49:14;4.75;;;1.30;;
81697;SDS011;71109;52.514;5.708;2023-08-31T00:51:40;4.15;;;1.70;;
81697;SDS011;71109;52.514;5.708;2023-08-31T00:54:05;3.63;;;1.33;;
81697;SDS011;71109;52.514;5.708;2023-08-31T00:56:31;5.90;;;1.60;;
81697;SDS011;71109;52.514;5.708;2023-08-31T00:58:57;4.28;;;1.33;;
81697;SDS011;71109;52.514;5.708;2023-08-31T01:12:34;7.45;;;2.25;;
81697;SDS011;71109;52.514;5.708;2023-08-31T01:15:06;5.93;;;2.33;;
81697;SDS011;71109;52.514;5.708;2023-08-31T01:17:44;3.75;;;2.15;;
81697;SDS011;71109;52.514;5.708;2023-08-31T01:20:16;7.50;;;2.45;;
81697;SDS011;71109;52.514;5.708;2023-08-31T01:22:55;2.47;;;1.83;;
81697;SDS011;71109;52.514;5.708;2023-08-31T01:25:22;5.95;;;2.50;;
81697;SDS011;71109;52.514;5.708;2023-08-31T01:27:48;5.40;;;2.47;;
81697;SDS011;71109;52.514;5.708;2023-08-31T01:30:13;6.40;;;2.40;;
81697;SDS011;71109;52.514;5.708;2023-08-31T01:32:43;4.93;;;2.20;;
81697;SDS011;71109;52.514;5.708;2023-08-31T01:35:10;4.60;;;2.80;;
81697;SDS011;71109;52.514;5.708;2023-08-31T01:40:06;11.38;;;4.30;;
81697;SDS011;71109;52.514;5.708;2023-08-31T01:42:36;8.48;;;5.35;;
81697;SDS011;71109;52.514;5.708;2023-08-31T01:45:01;11.35;;;6.07;;
81697;SDS011;71109;52.514;5.708;2023-08-31T01:47:29;8.80;;;6.70;;
81697;SDS011;71109;52.514;5.708;2023-08-31T01:49:54;22.98;;;8.70;;
81697;SDS011;71109;52.514;5.708;2023-08-31T01:52:20;19.45;;;10.15;;
81697;SDS011;71109;52.514;5.708;2023-08-31T01:54:46;27.30;;;10.73;;
81697;SDS011;71109;52.514;5.708;2023-08-31T01:57:11;22.88;;;12.23;;
81697;SDS011;71109;52.514;5.708;2023-08-31T01:59:37;25.73;;;13.75;;
81697;SDS011;71109;52.514;5.708;2023-08-31T02:02:02;34.28;;;17.15;;
81697;SDS011;71109;52.514;5.708;2023-08-31T02:04:28;27.88;;;17.63;;
81697;SDS011;71109;52.514;5.708;2023-08-31T02:06:54;37.47;;;19.42;;
81697;SDS011;71109;52.514;5.708;2023-08-31T02:09:19;36.40;;;19.17;;
81697;SDS011;71109;52.514;5.708;2023-08-31T02:11:45;33.88;;;19.50;;
81697;SDS011;71109;52.514;5.708;2023-08-31T02:14:10;33.80;;;18.97;;
81697;SDS011;71109;52.514;5.708;2023-08-31T02:16:35;32.17;;;18.50;;
81697;SDS011;71109;52.514;5.708;2023-08-31T02:19:01;30.23;;;18.17;;
81697;SDS011;71109;52.514;5.708;2023-08-31T02:21:26;29.30;;;18.07;;
81697;SDS011;71109;52.514;5.708;2023-08-31T02:23:52;29.88;;;16.38;;
81697;SDS011;71109;52.514;5.708;2023-08-31T02:26:17;28.48;;;15.15;;
81697;SDS011;71109;52.514;5.708;2023-08-31T02:28:42;29.33;;;13.77;;
81697;SDS011;71109;52.514;5.708;2023-08-31T02:31:10;24.00;;;12.43;;
81697;SDS011;71109;52.514;5.708;2023-08-31T02:33:36;23.90;;;12.70;;
81697;SDS011;71109;52.514;5.708;2023-08-31T02:36:01;26.33;;;10.60;;
81697;SDS011;71109;52.514;5.708;2023-08-31T02:38:26;20.13;;;10.25;;
81697;SDS011;71109;52.514;5.708;2023-08-31T02:40:52;16.55;;;10.35;;
81697;SDS011;71109;52.514;5.708;2023-08-31T02:43:17;19.93;;;9.10;;
81697;SDS011;71109;52.514;5.708;2023-08-31T02:45:43;20.85;;;11.00;;
81697;SDS011;71109;52.514;5.708;2023-08-31T02:48:09;18.60;;;10.38;;
81697;SDS011;71109;52.514;5.708;2023-08-31T02:50:35;21.45;;;9.35;;
81697;SDS011;71109;52.514;5.708;2023-08-31T02:53:00;17.92;;;10.05;;
81697;SDS011;71109;52.514;5.708;2023-08-31T02:55:26;14.68;;;8.27;;
81697;SDS011;71109;52.514;5.708;2023-08-31T02:57:52;17.95;;;8.35;;
81697;SDS011;71109;52.514;5.708;2023-08-31T03:00:17;19.30;;;7.38;;
81697;SDS011;71109;52.514;5.708;2023-08-31T03:02:46;16.60;;;7.90;;
81697;SDS011;71109;52.514;5.708;2023-08-31T03:05:12;14.68;;;8.20;;
81697;SDS011;71109;52.514;5.708;2023-08-31T03:07:38;15.15;;;6.72;;
81697;SDS011;71109;52.514;5.708;2023-08-31T03:10:03;17.27;;;6.33;;
81697;SDS011;71109;52.514;5.708;2023-08-31T03:12:29;11.57;;;5.85;;
81697;SDS011;71109;52.514;5.708;2023-08-31T03:14:55;14.30;;;6.43;;
81697;SDS011;71109;52.514;5.708;2023-08-31T03:17:20;12.88;;;6.00;;
81697;SDS011;71109;52.514;5.708;2023-08-31T03:19:45;9.43;;;5.38;;
81697;SDS011;71109;52.514;5.708;2023-08-31T03:22:11;9.07;;;5.30;;
81697;SDS011;71109;52.514;5.708;2023-08-31T03:24:36;9.32;;;4.45;;
81697;SDS011;71109;52.514;5.708;2023-08-31T03:27:01;8.43;;;5.83;;
81697;SDS011;71109;52.514;5.708;2023-08-31T03:29:28;12.30;;;5.40;;
81697;SDS011;71109;52.514;5.708;2023-08-31T03:31:54;7.88;;;4.78;;
81697;SDS011;71109;52.514;5.708;2023-08-31T03:34:20;13.43;;;6.00;;
81697;SDS011;71109;52.514;5.708;2023-08-31T03:36:45;16.33;;;7.00;;
81697;SDS011;71109;52.514;5.708;2023-08-31T03:39:10;11.55;;;6.53;;
81697;SDS011;71109;52.514;5.708;2023-08-31T03:41:36;17.03;;;7.67;;
81697;SDS011;71109;52.514;5.708;2023-08-31T03:44:01;11.30;;;7.53;;
81697;SDS011;71109;52.514;5.708;2023-08-31T03:46:27;13.82;;;7.18;;
81697;SDS011;71109;52.514;5.708;2023-08-31T03:48:52;22.90;;;8.57;;
81697;SDS011;71109;52.514;5.708;2023-08-31T03:51:17;19.67;;;7.53;;
81697;SDS011;71109;52.514;5.708;2023-08-31T03:53:43;11.60;;;7.63;;
81697;SDS011;71109;52.514;5.708;2023-08-31T03:56:09;14.38;;;8.50;;
81697;SDS011;71109;52.514;5.708;2023-08-31T03:58:34;18.63;;;8.68;;
81697;SDS011;71109;52.514;5.708;2023-08-31T04:01:00;14.77;;;7.95;;
81697;SDS011;71109;52.514;5.708;2023-08-31T04:03:25;15.07;;;8.35;;
81697;SDS011;71109;52.514;5.708;2023-08-31T04:05:56;14.80;;;7.78;;
81697;SDS011;71109;52.514;5.708;2023-08-31T04:08:22;19.25;;;7.78;;
81697;SDS011;71109;52.514;5.708;2023-08-31T04:10:47;15.63;;;6.68;;
81697;SDS011;71109;52.514;5.708;2023-08-31T04:13:12;8.73;;;5.10;;
81697;SDS011;71109;52.514;5.708;2023-08-31T04:15:38;8.50;;;4.40;;
81697;SDS011;71109;52.514;5.708;2023-08-31T04:18:03;6.77;;;3.70;;
81697;SDS011;71109;52.514;5.708;2023-08-31T04:20:29;8.90;;;4.72;;
81697;SDS011;71109;52.514;5.708;2023-08-31T04:22:54;14.00;;;5.47;;
81697;SDS011;71109;52.514;5.708;2023-08-31T04:25:19;14.87;;;6.03;;
81697;SDS011;71109;52.514;5.708;2023-08-31T04:27:45;15.10;;;6.55;;
81697;SDS011;71109;52.514;5.708;2023-08-31T04:30:11;10.00;;;6.32;;
81697;SDS011;71109;52.514;5.708;2023-08-31T04:32:37;13.57;;;6.90;;
81697;SDS011;71109;52.514;5.708;2023-08-31T04:35:03;16.20;;;6.35;;
81697;SDS011;71109;52.514;5.708;2023-08-31T04:37:30;13.80;;;5.78;;
81697;SDS011;71109;52.514;5.708;2023-08-31T04:39:56;14.52;;;5.50;;
81697;SDS011;71109;52.514;5.708;2023-08-31T04:42:22;13.32;;;5.68;;
81697;SDS011;71109;52.514;5.708;2023-08-31T04:44:48;16.75;;;5.95;;
81697;SDS011;71109;52.514;5.708;2023-08-31T04:47:14;14.75;;;5.78;;
81697;SDS011;71109;52.514;5.708;2023-08-31T04:49:39;14.00;;;5.67;;
81697;SDS011;71109;52.514;5.708;2023-08-31T04:52:05;15.10;;;5.30;;
81697;SDS011;71109;52.514;5.708;2023-08-31T04:54:30;9.90;;;4.32;;
81697;SDS011;71109;52.514;5.708;2023-08-31T04:56:56;10.80;;;4.78;;
81697;SDS011;71109;52.514;5.708;2023-08-31T04:59:21;17.23;;;5.03;;
81697;SDS011;71109;52.514;5.708;2023-08-31T05:01:46;15.67;;;4.90;;
81697;SDS011;71109;52.514;5.708;2023-08-31T05:04:12;8.88;;;4.90;;
81697;SDS011;71109;52.514;5.708;2023-08-31T05:06:37;13.90;;;4.63;;
81697;SDS011;71109;52.514;5.708;2023-08-31T05:09:03;15.63;;;6.45;;
81697;SDS011;71109;52.514;5.708;2023-08-31T05:11:29;7.90;;;4.00;;
81697;SDS011;71109;52.514;5.708;2023-08-31T05:13:54;9.43;;;4.32;;
81697;SDS011;71109;52.514;5.708;2023-08-31T05:16:19;10.47;;;3.43;;
81697;SDS011;71109;52.514;5.708;2023-08-31T05:18:45;18.27;;;4.85;;
81697;SDS011;71109;52.514;5.708;2023-08-31T05:21:10;5.70;;;3.30;;
81697;SDS011;71109;52.514;5.708;2023-08-31T05:23:35;10.97;;;4.00;;
81697;SDS011;71109;52.514;5.708;2023-08-31T05:26:01;11.35;;;3.58;;
81697;SDS011;71109;52.514;5.708;2023-08-31T05:28:26;7.20;;;3.63;;
81697;SDS011;71109;52.514;5.708;2023-08-31T05:30:54;10.65;;;4.25;;
81697;SDS011;71109;52.514;5.708;2023-08-31T05:33:20;6.22;;;3.65;;
81697;SDS011;71109;52.514;5.708;2023-08-31T05:35:47;10.55;;;3.45;;
81697;SDS011;71109;52.514;5.708;2023-08-31T05:38:13;7.13;;;3.15;;
81697;SDS011;71109;52.514;5.708;2023-08-31T05:40:38;13.02;;;3.55;;
81697;SDS011;71109;52.514;5.708;2023-08-31T05:43:04;11.18;;;3.80;;
81697;SDS011;71109;52.514;5.708;2023-08-31T05:45:33;7.65;;;3.13;;
81697;SDS011;71109;52.514;5.708;2023-08-31T05:47:58;10.43;;;3.00;;
81697;SDS011;71109;52.514;5.708;2023-08-31T05:50:23;8.25;;;3.10;;
81697;SDS011;71109;52.514;5.708;2023-08-31T05:52:50;13.65;;;3.00;;
81697;SDS011;71109;52.514;5.708;2023-08-31T05:55:15;7.47;;;2.60;;
81697;SDS011;71109;52.514;5.708;2023-08-31T05:57:40;12.70;;;4.50;;
81697;SDS011;71109;52.514;5.708;2023-08-31T06:00:06;15.48;;;3.38;;
81697;SDS011;71109;52.514;5.708;2023-08-31T06:02:34;13.77;;;2.92;;
81697;SDS011;71109;52.514;5.708;2023-08-31T06:05:00;10.98;;;3.80;;
81697;SDS011;71109;52.514;5.708;2023-08-31T06:07:26;17.23;;;2.30;;
81697;SDS011;71109;52.514;5.708;2023-08-31T06:09:54;10.27;;;2.40;;
81697;SDS011;71109;52.514;5.708;2023-08-31T06:12:19;8.45;;;2.20;;
81697;SDS011;71109;52.514;5.708;2023-08-31T06:14:45;6.07;;;2.00;;
81697;SDS011;71109;52.514;5.708;2023-08-31T06:17:10;6.37;;;1.70;;
81697;SDS011;71109;52.514;5.708;2023-08-31T06:19:38;5.20;;;2.03;;
81697;SDS011;71109;52.514;5.708;2023-08-31T06:22:03;10.27;;;2.15;;
81697;SDS011;71109;52.514;5.708;2023-08-31T06:24:29;3.53;;;1.40;;
81697;SDS011;71109;52.514;5.708;2023-08-31T06:26:54;11.88;;;1.70;;
81697;SDS011;71109;52.514;5.708;2023-08-31T06:29:21;6.63;;;1.60;;
81697;SDS011;71109;52.514;5.708;2023-08-31T06:31:47;5.38;;;0.90;;
81697;SDS011;71109;52.514;5.708;2023-08-31T06:34:12;5.90;;;0.90;;
81697;SDS011;71109;52.514;5.708;2023-08-31T06:36:37;1.93;;;1.00;;
81697;SDS011;71109;52.514;5.708;2023-08-31T06:39:03;7.40;;;1.25;;
81697;SDS011;71109;52.514;5.708;2023-08-31T06:41:29;8.40;;;1.70;;
81697;SDS011;71109;52.514;5.708;2023-08-31T06:43:55;7.78;;;1.65;;
81697;SDS011;71109;52.514;5.708;2023-08-31T06:46:21;5.28;;;1.20;;
81697;SDS011;71109;52.514;5.708;2023-08-31T06:48:46;4.18;;;1.05;;
81697;SDS011;71109;52.514;5.708;2023-08-31T06:51:13;3.40;;;1.00;;
81697;SDS011;71109;52.514;5.708;2023-08-31T06:53:39;6.80;;;1.67;;
81697;SDS011;71109;52.514;5.708;2023-08-31T06:56:04;8.83;;;1.47;;
81697;SDS011;71109;52.514;5.708;2023-08-31T06:58:29;10.03;;;1.80;;
81697;SDS011;71109;52.514;5.708;2023-08-31T07:00:55;5.60;;;1.30;;
81697;SDS011;71109;52.514;5.708;2023-08-31T07:03:20;4.65;;;1.42;;
81697;SDS011;71109;52.514;5.708;2023-08-31T07:05:45;3.67;;;1.13;;
81697;SDS011;71109;52.514;5.708;2023-08-31T07:08:11;3.90;;;1.55;;
81697;SDS011;71109;52.514;5.708;2023-08-31T07:10:36;6.82;;;1.75;;
81697;SDS011;71109;52.514;5.708;2023-08-31T07:13:02;4.55;;;1.30;;
81697;SDS011;71109;52.514;5.708;2023-08-31T07:15:28;7.80;;;1.15;;
81697;SDS011;71109;52.514;5.708;2023-08-31T07:17:54;2.53;;;1.38;;
81697;SDS011;71109;52.514;5.708;2023-08-31T07:20:19;9.47;;;1.47;;
81697;SDS011;71109;52.514;5.708;2023-08-31T07:22:45;7.68;;;1.48;;
81697;SDS011;71109;52.514;5.708;2023-08-31T07:25:10;4.07;;;1.40;;
81697;SDS011;71109;52.514;5.708;2023-08-31T07:27:36;8.95;;;1.88;;
81697;SDS011;71109;52.514;5.708;2023-08-31T07:30:02;5.28;;;1.42;;
81697;SDS011;71109;52.514;5.708;2023-08-31T07:32:29;5.35;;;1.55;;
81697;SDS011;71109;52.514;5.708;2023-08-31T07:34:54;5.30;;;1.40;;
81697;SDS011;71109;52.514;5.708;2023-08-31T07:37:20;6.68;;;2.00;;
81697;SDS011;71109;52.514;5.708;2023-08-31T07:39:45;10.17;;;2.53;;
81697;SDS011;71109;52.514;5.708;2023-08-31T07:42:11;9.98;;;1.92;;
81697;SDS011;71109;52.514;5.708;2023-08-31T07:44:36;9.38;;;1.90;;
81697;SDS011;71109;52.514;5.708;2023-08-31T07:47:02;5.00;;;2.10;;
81697;SDS011;71109;52.514;5.708;2023-08-31T07:49:27;4.85;;;1.95;;
81697;SDS011;71109;52.514;5.708;2023-08-31T07:51:53;2.30;;;1.70;;
81697;SDS011;71109;52.514;5.708;2023-08-31T07:54:19;3.92;;;1.08;;
81697;SDS011;71109;52.514;5.708;2023-08-31T07:56:47;6.05;;;1.42;;
81697;SDS011;71109;52.514;5.708;2023-08-31T07:59:13;8.88;;;1.77;;
81697;SDS011;71109;52.514;5.708;2023-08-31T08:01:38;4.30;;;2.08;;
81697;SDS011;71109;52.514;5.708;2023-08-31T08:04:03;5.23;;;1.50;;
81697;SDS011;71109;52.514;5.708;2023-08-31T08:06:29;3.85;;;1.30;;
81697;SDS011;71109;52.514;5.708;2023-08-31T08:08:54;7.03;;;2.60;;
81697;SDS011;71109;52.514;5.708;2023-08-31T08:11:21;6.13;;;1.40;;
81697;SDS011;71109;52.514;5.708;2023-08-31T08:13:47;8.15;;;2.65;;
81697;SDS011;71109;52.514;5.708;2023-08-31T08:16:12;5.43;;;1.50;;
81697;SDS011;71109;52.514;5.708;2023-08-31T08:18:39;3.85;;;1.20;;
81697;SDS011;71109;52.514;5.708;2023-08-31T08:21:04;4.68;;;1.30;;
81697;SDS011;71109;52.514;5.708;2023-08-31T08:23:30;9.20;;;1.47;;
81697;SDS011;71109;52.514;5.708;2023-08-31T08:25:55;4.97;;;1.50;;
81697;SDS011;71109;52.514;5.708;2023-08-31T08:28:20;7.45;;;1.75;;
81697;SDS011;71109;52.514;5.708;2023-08-31T08:30:46;4.63;;;1.43;;
81697;SDS011;71109;52.514;5.708;2023-08-31T08:33:11;3.20;;;1.65;;
81697;SDS011;71109;52.514;5.708;2023-08-31T08:35:37;3.50;;;1.50;;
81697;SDS011;71109;52.514;5.708;2023-08-31T08:38:03;4.45;;;2.28;;
81697;SDS011;71109;52.514;5.708;2023-08-31T08:40:30;7.53;;;1.58;;
81697;SDS011;71109;52.514;5.708;2023-08-31T08:42:56;4.75;;;2.00;;
81697;SDS011;71109;52.514;5.708;2023-08-31T08:45:23;3.28;;;1.50;;
81697;SDS011;71109;52.514;5.708;2023-08-31T08:47:49;1.63;;;0.90;;
81697;SDS011;71109;52.514;5.708;2023-08-31T08:50:16;8.27;;;1.33;;
81697;SDS011;71109;52.514;5.708;2023-08-31T08:52:41;2.25;;;1.20;;
81697;SDS011;71109;52.514;5.708;2023-08-31T08:55:07;4.47;;;1.45;;
81697;SDS011;71109;52.514;5.708;2023-08-31T08:57:34;5.53;;;0.93;;
81697;SDS011;71109;52.514;5.708;2023-08-31T08:59:59;2.70;;;0.90;;
81697;SDS011;71109;52.514;5.708;2023-08-31T09:02:25;8.38;;;2.17;;
81697;SDS011;71109;52.514;5.708;2023-08-31T09:04:50;11.73;;;2.58;;
81697;SDS011;71109;52.514;5.708;2023-08-31T09:07:19;3.75;;;1.48;;
81697;SDS011;71109;52.514;5.708;2023-08-31T09:09:50;7.60;;;1.95;;
81697;SDS011;71109;52.514;5.708;2023-08-31T09:12:16;12.35;;;1.70;;
81697;SDS011;71109;52.514;5.708;2023-08-31T09:14:41;6.97;;;1.63;;
81697;SDS011;71109;52.514;5.708;2023-08-31T09:17:06;6.50;;;2.38;;
81697;SDS011;71109;52.514;5.708;2023-08-31T09:19:32;10.15;;;2.45;;
81697;SDS011;71109;52.514;5.708;2023-08-31T09:21:57;6.50;;;1.48;;
81697;SDS011;71109;52.514;5.708;2023-08-31T09:24:23;7.57;;;1.73;;
81697;SDS011;71109;52.514;5.708;2023-08-31T09:26:58;7.80;;;1.35;;
81697;SDS011;71109;52.514;5.708;2023-08-31T09:29:24;8.68;;;1.60;;
81697;SDS011;71109;52.514;5.708;2023-08-31T09:31:49;10.65;;;1.83;;
81697;SDS011;71109;52.514;5.708;2023-08-31T09:34:15;8.38;;;1.23;;
81697;SDS011;71109;52.514;5.708;2023-08-31T09:36:42;5.85;;;1.40;;
81697;SDS011;71109;52.514;5.708;2023-08-31T09:39:07;7.35;;;1.50;;
81697;SDS011;71109;52.514;5.708;2023-08-31T09:41:34;7.45;;;1.63;;
81697;SDS011;71109;52.514;5.708;2023-08-31T09:44:15;5.00;;;1.20;;
81697;SDS011;71109;52.514;5.708;2023-08-31T09:46:42;8.32;;;1.38;;
81697;SDS011;71109;52.514;5.708;2023-08-31T09:49:08;11.75;;;1.30;;
81697;SDS011;71109;52.514;5.708;2023-08-31T09:51:34;5.90;;;1.08;;
81697;SDS011;71109;52.514;5.708;2023-08-31T09:54:00;8.88;;;1.95;;
81697;SDS011;71109;52.514;5.708;2023-08-31T09:56:27;3.15;;;0.98;;
81697;SDS011;71109;52.514;5.708;2023-08-31T09:58:56;7.85;;;1.55;;
81697;SDS011;71109;52.514;5.708;2023-08-31T10:01:22;3.58;;;1.63;;
81697;SDS011;71109;52.514;5.708;2023-08-31T10:03:47;6.00;;;1.13;;
81697;SDS011;71109;52.514;5.708;2023-08-31T10:06:12;5.70;;;1.40;;
81697;SDS011;71109;52.514;5.708;2023-08-31T10:08:38;9.02;;;2.92;;
81697;SDS011;71109;52.514;5.708;2023-08-31T10:11:04;13.32;;;1.50;;
81697;SDS011;71109;52.514;5.708;2023-08-31T10:13:33;7.47;;;1.25;;
81697;SDS011;71109;52.514;5.708;2023-08-31T10:16:02;6.18;;;1.38;;
81697;SDS011;71109;52.514;5.708;2023-08-31T10:18:29;8.00;;;1.25;;
81697;SDS011;71109;52.514;5.708;2023-08-31T10:20:55;7.78;;;1.20;;
81697;SDS011;71109;52.514;5.708;2023-08-31T10:23:21;8.00;;;1.10;;
81697;SDS011;71109;52.514;5.708;2023-08-31T10:28:18;6.95;;;1.30;;
81697;SDS011;71109;52.514;5.708;2023-08-31T10:30:59;9.57;;;2.10;;
81697;SDS011;71109;52.514;5.708;2023-08-31T10:33:31;9.77;;;2.40;;
81697;SDS011;71109;52.514;5.708;2023-08-31T10:36:17;4.75;;;1.25;;
81697;SDS011;71109;52.514;5.708;2023-08-31T10:41:22;8.52;;;2.28;;
81697;SDS011;71109;52.514;5.708;2023-08-31T10:51:21;12.37;;;1.93;;
81697;SDS011;71109;52.514;5.708;2023-08-31T10:53:47;15.60;;;1.65;;
81697;SDS011;71109;52.514;5.708;2023-08-31T10:56:12;6.43;;;0.85;;
81697;SDS011;71109;52.514;5.708;2023-08-31T10:58:40;8.77;;;2.03;;
81697;SDS011;71109;52.514;5.708;2023-08-31T11:01:06;9.00;;;1.58;;
81697;SDS011;71109;52.514;5.708;2023-08-31T11:03:31;7.85;;;1.85;;
81697;SDS011;71109;52.514;5.708;2023-08-31T11:05:58;7.77;;;1.37;;
81697;SDS011;71109;52.514;5.708;2023-08-31T11:08:24;7.32;;;1.10;;
81697;SDS011;71109;52.514;5.708;2023-08-31T11:10:50;6.72;;;2.55;;
81697;SDS011;71109;52.514;5.708;2023-08-31T11:13:18;4.03;;;0.90;;
81697;SDS011;71109;52.514;5.708;2023-08-31T11:15:46;3.08;;;1.25;;
81697;SDS011;71109;52.514;5.708;2023-08-31T11:18:12;14.05;;;1.30;;
81697;SDS011;71109;52.514;5.708;2023-08-31T11:20:40;6.63;;;1.30;;
81697;SDS011;71109;52.514;5.708;2023-08-31T11:23:06;4.13;;;1.13;;
81697;SDS011;71109;52.514;5.708;2023-08-31T11:25:32;5.88;;;0.85;;
81697;SDS011;71109;52.514;5.708;2023-08-31T11:28:02;2.55;;;0.85;;
81697;SDS011;71109;52.514;5.708;2023-08-31T11:30:34;3.53;;;1.00;;
81697;SDS011;71109;52.514;5.708;2023-08-31T11:33:07;4.38;;;1.33;;
81697;SDS011;71109;52.514;5.708;2023-08-31T11:35:34;4.43;;;1.50;;
81697;SDS011;71109;52.514;5.708;2023-08-31T11:38:01;5.65;;;1.02;;
81697;SDS011;71109;52.514;5.708;2023-08-31T11:40:27;5.28;;;1.00;;
81697;SDS011;71109;52.514;5.708;2023-08-31T11:42:52;5.18;;;1.00;;
81697;SDS011;71109;52.514;5.708;2023-08-31T11:45:20;10.27;;;1.30;;
81697;SDS011;71109;52.514;5.708;2023-08-31T11:47:48;10.68;;;1.92;;
81697;SDS011;71109;52.514;5.708;2023-08-31T11:50:14;5.57;;;1.00;;
81697;SDS011;71109;52.514;5.708;2023-08-31T11:52:41;5.93;;;0.93;;
81697;SDS011;71109;52.514;5.708;2023-08-31T11:55:09;5.68;;;1.27;;
81697;SDS011;71109;52.514;5.708;2023-08-31T11:57:38;4.75;;;0.90;;
81697;SDS011;71109;52.514;5.708;2023-08-31T12:00:03;5.43;;;1.13;;
81697;SDS011;71109;52.514;5.708;2023-08-31T12:02:34;7.07;;;1.02;;
81697;SDS011;71109;52.514;5.708;2023-08-31T12:05:00;7.75;;;1.73;;
81697;SDS011;71109;52.514;5.708;2023-08-31T12:07:26;15.73;;;1.45;;
81697;SDS011;71109;52.514;5.708;2023-08-31T12:09:51;7.80;;;1.50;;
81697;SDS011;71109;52.514;5.708;2023-08-31T12:12:19;4.25;;;1.30;;
81697;SDS011;71109;52.514;5.708;2023-08-31T12:14:45;5.80;;;1.20;;
81697;SDS011;71109;52.514;5.708;2023-08-31T12:17:13;8.13;;;1.77;;
81697;SDS011;71109;52.514;5.708;2023-08-31T12:19:43;3.97;;;1.45;;
81697;SDS011;71109;52.514;5.708;2023-08-31T12:22:09;6.00;;;1.43;;
81697;SDS011;71109;52.514;5.708;2023-08-31T12:24:38;7.72;;;1.40;;
81697;SDS011;71109;52.514;5.708;2023-08-31T12:27:05;7.22;;;1.77;;
81697;SDS011;71109;52.514;5.708;2023-08-31T12:29:31;6.38;;;1.30;;
81697;SDS011;71109;52.514;5.708;2023-08-31T12:31:56;7.18;;;2.08;;
81697;SDS011;71109;52.514;5.708;2023-08-31T12:34:23;7.95;;;1.25;;
81697;SDS011;71109;52.514;5.708;2023-08-31T12:36:48;4.05;;;0.90;;
81697;SDS011;71109;52.514;5.708;2023-08-31T12:39:14;7.90;;;1.25;;
81697;SDS011;71109;52.514;5.708;2023-08-31T12:41:39;8.00;;;1.30;;
81697;SDS011;71109;52.514;5.708;2023-08-31T12:44:07;8.05;;;1.50;;
81697;SDS011;71109;52.514;5.708;2023-08-31T12:46:33;7.25;;;1.30;;
81697;SDS011;71109;52.514;5.708;2023-08-31T12:48:59;4.30;;;1.25;;
81697;SDS011;71109;52.514;5.708;2023-08-31T12:51:26;8.18;;;1.10;;
81697;SDS011;71109;52.514;5.708;2023-08-31T12:53:51;5.90;;;1.50;;
81697;SDS011;71109;52.514;5.708;2023-08-31T12:56:16;6.35;;;1.52;;
81697;SDS011;71109;52.514;5.708;2023-08-31T12:58:48;6.90;;;1.23;;
81697;SDS011;71109;52.514;5.708;2023-08-31T13:01:17;4.50;;;1.20;;
81697;SDS011;71109;52.514;5.708;2023-08-31T13:03:43;4.32;;;0.90;;
81697;SDS011;71109;52.514;5.708;2023-08-31T13:06:09;4.00;;;1.17;;
81697;SDS011;71109;52.514;5.708;2023-08-31T13:08:34;8.45;;;1.55;;
81697;SDS011;71109;52.514;5.708;2023-08-31T13:11:00;3.88;;;1.13;;
81697;SDS011;71109;52.514;5.708;2023-08-31T13:13:25;6.72;;;1.10;;
81697;SDS011;71109;52.514;5.708;2023-08-31T13:15:50;6.00;;;1.10;;
81697;SDS011;71109;52.514;5.708;2023-08-31T13:18:16;13.27;;;2.88;;
81697;SDS011;71109;52.514;5.708;2023-08-31T13:20:48;7.43;;;1.17;;
81697;SDS011;71109;52.514;5.708;2023-08-31T13:23:17;10.07;;;1.45;;
81697;SDS011;71109;52.514;5.708;2023-08-31T13:25:42;7.45;;;1.65;;
81697;SDS011;71109;52.514;5.708;2023-08-31T13:28:08;9.93;;;1.35;;
81697;SDS011;71109;52.514;5.708;2023-08-31T13:30:33;8.07;;;1.00;;
81697;SDS011;71109;52.514;5.708;2023-08-31T13:32:59;2.60;;;0.90;;
81697;SDS011;71109;52.514;5.708;2023-08-31T13:35:24;11.70;;;2.40;;
81697;SDS011;71109;52.514;5.708;2023-08-31T13:37:50;7.90;;;1.10;;
81697;SDS011;71109;52.514;5.708;2023-08-31T13:40:15;3.67;;;0.83;;
81697;SDS011;71109;52.514;5.708;2023-08-31T13:42:48;5.15;;;1.80;;
81697;SDS011;71109;52.514;5.708;2023-08-31T13:45:18;6.70;;;1.50;;
81697;SDS011;71109;52.514;5.708;2023-08-31T13:47:43;6.78;;;1.45;;
81697;SDS011;71109;52.514;5.708;2023-08-31T13:50:12;6.00;;;1.23;;
81697;SDS011;71109;52.514;5.708;2023-08-31T13:52:37;5.10;;;1.25;;
81697;SDS011;71109;52.514;5.708;2023-08-31T13:55:02;6.00;;;0.93;;
81697;SDS011;71109;52.514;5.708;2023-08-31T13:57:28;5.07;;;1.30;;
81697;SDS011;71109;52.514;5.708;2023-08-31T13:59:53;3.20;;;0.93;;
81697;SDS011;71109;52.514;5.708;2023-08-31T14:02:19;2.97;;;1.17;;
81697;SDS011;71109;52.514;5.708;2023-08-31T14:04:44;6.30;;;1.58;;
81697;SDS011;71109;52.514;5.708;2023-08-31T14:07:10;3.80;;;0.90;;
81697;SDS011;71109;52.514;5.708;2023-08-31T14:09:35;5.87;;;2.53;;
81697;SDS011;71109;52.514;5.708;2023-08-31T14:12:00;7.32;;;1.80;;
81697;SDS011;71109;52.514;5.708;2023-08-31T14:14:26;6.87;;;1.33;;
81697;SDS011;71109;52.514;5.708;2023-08-31T14:16:51;5.97;;;1.15;;
81697;SDS011;71109;52.514;5.708;2023-08-31T14:19:16;16.42;;;1.58;;
81697;SDS011;71109;52.514;5.708;2023-08-31T14:21:43;6.65;;;1.00;;
81697;SDS011;71109;52.514;5.708;2023-08-31T14:24:08;6.53;;;1.10;;
81697;SDS011;71109;52.514;5.708;2023-08-31T14:26:34;4.93;;;1.58;;
81697;SDS011;71109;52.514;5.708;2023-08-31T14:28:59;4.82;;;0.90;;
81697;SDS011;71109;52.514;5.708;2023-08-31T14:31:24;3.38;;;1.10;;
81697;SDS011;71109;52.514;5.708;2023-08-31T14:33:50;4.33;;;1.23;;
81697;SDS011;71109;52.514;5.708;2023-08-31T14:36:17;6.47;;;1.48;;
81697;SDS011;71109;52.514;5.708;2023-08-31T14:38:42;4.93;;;1.63;;
81697;SDS011;71109;52.514;5.708;2023-08-31T14:41:08;3.22;;;0.85;;
81697;SDS011;71109;52.514;5.708;2023-08-31T14:43:33;6.82;;;1.52;;
81697;SDS011;71109;52.514;5.708;2023-08-31T14:45:59;6.00;;;1.48;;
81697;SDS011;71109;52.514;5.708;2023-08-31T14:48:26;4.55;;;0.93;;
81697;SDS011;71109;52.514;5.708;2023-08-31T14:50:52;4.47;;;1.02;;
81697;SDS011;71109;52.514;5.708;2023-08-31T14:53:18;4.65;;;1.33;;
81697;SDS011;71109;52.514;5.708;2023-08-31T14:55:47;2.27;;;0.83;;
81697;SDS011;71109;52.514;5.708;2023-08-31T14:58:13;5.65;;;0.90;;
81697;SDS011;71109;52.514;5.708;2023-08-31T15:00:39;4.60;;;1.40;;
81697;SDS011;71109;52.514;5.708;2023-08-31T15:03:04;5.93;;;1.58;;